Time;durP1;ratioP1;P1;durP2;ratioP2;P2;SDS_P1;SDS_P2;PMS_P1;PMS_P2;Temp;Humidity;BMP_temperature;BMP_pressure;BME280_temperature;BME280_humidity;BME280_pressure;Samples;Min_cycle;Max_cycle;Signal;HPM_P1;HPM_P2
2023/06/14 00:00:56;;;;;;;;;;;;;;;22.84;44.45;97464.56;5145199;27;20027;-75
2023/06/14 00:03:24;;;;;;;;;;;;;;;23.19;43.82;97465.34;5146177;27;19988;-75
2023/06/14 00:05:50;;;;;;;;;;;;;;;23.42;43.69;97466.31;5141750;27;19986;-75
2023/06/14 00:08:18;;;;;;;;;;;;;;;23.60;43.30;97461.22;5140982;27;19970;-75
2023/06/14 00:10:45;;;;;;;;;;;;;;;23.66;43.41;97459.78;5142181;27;19927;-76
2023/06/14 00:13:12;;;;;;;;;;;;;;;23.22;44.06;97456.47;5144990;27;19959;-76
2023/06/14 00:15:39;;;;;;;;;;;;;;;23.59;43.59;97459.63;5143635;27;19966;-74
2023/06/14 00:18:06;;;;;;;;;;;;;;;23.72;43.61;97460.28;5140959;27;19930;-75
2023/06/14 00:20:33;;;;;;;;;;;;;;;23.65;43.78;97467.16;5140604;27;19930;-74
2023/06/14 00:23:00;;;;;;;;;;;;;;;23.57;43.92;97465.44;5134911;27;19924;-74
2023/06/14 00:25:26;;;;;;;;;;;;;;;23.39;43.94;97463.47;5143493;27;20049;-74
2023/06/14 00:27:53;;;;;;;;;;;;;;;23.13;44.88;97464.06;5143399;27;19924;-75
2023/06/14 00:30:21;;;;;;;;;;;;;;;22.82;45.70;97466.81;5143956;27;19995;-74
2023/06/14 00:32:47;;;;;;;;;;;;;;;22.62;45.70;97455.06;5123592;27;19923;-75
2023/06/14 00:35:14;;;;;;;;;;;;;;;22.55;46.03;97452.97;5140595;27;19955;-74
2023/06/14 00:37:40;;;;;;;;;;;;;;;22.79;45.62;97459.38;5141492;27;19971;-75
2023/06/14 00:40:07;;;;;;;;;;;;;;;22.63;45.92;97461.28;5144052;27;19919;-76
2023/06/14 00:42:34;;;;;;;;;;;;;;;22.59;46.01;97461.22;5143823;27;19923;-75
2023/06/14 00:45:00;;;;;;;;;;;;;;;22.93;45.72;97457.00;5140245;27;19983;-75
2023/06/14 00:47:28;;;;;;;;;;;;;;;23.16;45.37;97463.34;5140399;27;19967;-75
2023/06/14 00:49:55;;;;;;;;;;;;;;;23.27;45.44;97452.69;5141278;27;19990;-74
2023/06/14 00:52:24;;;;;;;;;;;;;;;23.34;45.14;97464.53;5145622;27;19979;-75
2023/06/14 00:54:50;;;;;;;;;;;;;;;23.40;45.09;97457.66;5148935;27;19912;-74
2023/06/14 00:57:17;;;;;;;;;;;;;;;23.38;45.28;97453.69;5149489;27;19960;-75
2023/06/14 00:59:44;;;;;;;;;;;;;;;23.29;45.29;97462.09;5148129;27;19926;-74
2023/06/14 01:02:11;;;;;;;;;;;;;;;23.16;45.46;97463.34;5147095;27;20006;-74
2023/06/14 01:04:40;;;;;;;;;;;;;;;23.01;45.81;97458.72;5147941;27;19912;-75
2023/06/14 01:07:14;;;;;;;;;;;;;;;23.03;45.70;97450.97;5150143;27;19987;-75
2023/06/14 01:09:49;;;;;;;;;;;;;;;23.19;45.72;97459.91;5149523;27;19924;-75
2023/06/14 01:12:18;;;;;;;;;;;;;;;23.24;45.44;97454.16;5146347;27;19922;-75
2023/06/14 01:14:45;;;;;;;;;;;;;;;23.28;45.49;97455.06;5143656;27;19962;-75
2023/06/14 01:17:15;;;;;;;;;;;;;;;23.28;45.42;97457.78;5145249;27;19958;-74
2023/06/14 01:19:44;;;;;;;;;;;;;;;23.26;45.47;97457.34;5142920;28;19991;-75
2023/06/14 01:22:10;;;;;;;;;;;;;;;23.27;45.66;97460.88;5141218;28;19987;-75
2023/06/14 01:24:39;;;;;;;;;;;;;;;23.24;45.70;97453.41;5141578;28;20003;-75
2023/06/14 01:27:06;;;;;;;;;;;;;;;23.21;45.72;97452.16;5144924;28;19923;-75
2023/06/14 01:29:36;;;;;;;;;;;;;;;23.24;45.62;97453.41;5125769;28;19927;-75
2023/06/14 01:32:03;;;;;;;;;;;;;;;23.23;45.57;97447.16;5131864;28;20015;-74
2023/06/14 01:34:29;;;;;;;;;;;;;;;23.21;45.63;97454.88;5121727;28;19928;-74
2023/06/14 01:36:56;;;;;;;;;;;;;;;23.26;45.47;97462.00;5143899;28;19923;-74
2023/06/14 01:39:23;;;;;;;;;;;;;;;23.22;45.70;97451.03;5144138;28;19977;-75
2023/06/14 01:41:52;;;;;;;;;;;;;;;23.12;45.98;97454.28;5141670;28;19958;-75
2023/06/14 01:44:19;;;;;;;;;;;;;;;23.11;45.64;97445.34;5141958;28;19962;-75
2023/06/14 01:46:46;;;;;;;;;;;;;;;23.06;46.03;97455.72;5141987;28;20010;-75
2023/06/14 01:49:12;;;;;;;;;;;;;;;22.97;45.92;97455.13;5143335;28;19934;-75
2023/06/14 01:51:38;;;;;;;;;;;;;;;22.87;46.11;97450.25;5142351;28;19974;-75
2023/06/14 01:54:05;;;;;;;;;;;;;;;22.52;46.45;97456.38;5139463;28;19935;-75
2023/06/14 01:56:32;;;;;;;;;;;;;;;21.95;47.18;97458.75;5139407;28;19924;-75
2023/06/14 01:59:00;;;;;;;;;;;;;;;21.48;48.16;97455.84;5142984;28;19953;-75
2023/06/14 02:01:26;;;;;;;;;;;;;;;21.74;47.86;97452.72;5143255;28;19945;-75
2023/06/14 02:03:53;;;;;;;;;;;;;;;21.94;47.21;97460.69;5140028;28;19919;-75
2023/06/14 02:06:19;;;;;;;;;;;;;;;22.29;47.12;97458.09;5139994;27;19920;-75
2023/06/14 02:08:46;;;;;;;;;;;;;;;22.42;46.97;97458.81;5145002;27;19945;-75
2023/06/14 02:11:12;;;;;;;;;;;;;;;22.56;46.47;97451.78;5147417;27;19947;-76
2023/06/14 02:13:39;;;;;;;;;;;;;;;22.51;46.66;97454.00;5145489;27;19930;-74
2023/06/14 02:16:06;;;;;;;;;;;;;;;22.54;46.60;97453.28;5143571;27;20014;-74
2023/06/14 02:18:33;;;;;;;;;;;;;;;22.26;46.66;97456.09;5144631;27;19926;-74
2023/06/14 02:20:59;;;;;;;;;;;;;;;21.78;47.46;97448.97;5112843;27;19930;-76
2023/06/14 02:23:26;;;;;;;;;;;;;;;21.39;48.09;97447.84;5147023;27;19923;-75
2023/06/14 02:25:52;;;;;;;;;;;;;;;21.30;48.40;97452.63;5143701;27;19963;-75
2023/06/14 02:28:19;;;;;;;;;;;;;;;21.10;48.90;97456.31;5142833;27;20600;-75
2023/06/14 02:30:45;;;;;;;;;;;;;;;21.31;48.80;97456.94;5144232;27;20019;-75
2023/06/14 02:33:13;;;;;;;;;;;;;;;21.07;49.17;97467.03;5146236;27;19970;-74
2023/06/14 02:35:39;;;;;;;;;;;;;;;21.12;49.22;97464.09;5145237;27;20415;-74
2023/06/14 02:38:05;;;;;;;;;;;;;;;20.79;49.77;97466.94;5142522;27;19953;-75
2023/06/14 02:40:32;;;;;;;;;;;;;;;20.74;50.27;97469.84;5142698;27;19989;-75
2023/06/14 02:42:58;;;;;;;;;;;;;;;20.08;50.97;97477.31;5146101;27;19970;-74
2023/06/14 02:45:24;;;;;;;;;;;;;;;19.81;51.59;97470.53;5146020;27;20058;-75
2023/06/14 02:47:51;;;;;;;;;;;;;;;19.30;52.95;97477.94;5143491;27;19927;-75
2023/06/14 02:50:21;;;;;;;;;;;;;;;20.09;52.11;97471.53;5142466;27;19924;-74
2023/06/14 02:52:47;;;;;;;;;;;;;;;19.70;52.25;97475.59;5144434;27;19945;-74
2023/06/14 02:55:14;;;;;;;;;;;;;;;20.08;51.73;97469.97;5146201;27;19955;-75
2023/06/14 02:57:40;;;;;;;;;;;;;;;19.83;52.19;97479.16;5144937;27;19953;-74
2023/06/14 03:00:09;;;;;;;;;;;;;;;20.57;51.31;97470.88;5142423;27;19963;-74
2023/06/14 03:02:36;;;;;;;;;;;;;;;20.45;51.45;97468.94;5142603;27;19931;-74
2023/06/14 03:05:03;;;;;;;;;;;;;;;20.63;50.96;97469.53;5146385;27;19923;-74
2023/06/14 03:07:31;;;;;;;;;;;;;;;20.41;51.13;97467.22;5146240;27;19919;-75
2023/06/14 03:09:57;;;;;;;;;;;;;;;20.59;51.11;97473.22;5144044;27;19923;-75
2023/06/14 03:12:24;;;;;;;;;;;;;;;20.64;51.17;97470.31;5143451;27;20011;-74
2023/06/14 03:14:51;;;;;;;;;;;;;;;21.06;50.39;97468.94;5144726;27;19934;-74
2023/06/14 03:17:19;;;;;;;;;;;;;;;21.45;49.66;97473.63;5145477;27;19923;-74
2023/06/14 03:19:45;;;;;;;;;;;;;;;21.79;49.08;97474.19;5143383;27;19924;-74
2023/06/14 03:22:12;;;;;;;;;;;;;;;21.91;48.77;97479.63;5141764;27;19931;-74
2023/06/14 03:24:41;;;;;;;;;;;;;;;22.02;48.60;97480.72;5142446;27;19928;-74
2023/06/14 03:27:09;;;;;;;;;;;;;;;22.11;48.28;97475.91;5145454;27;19924;-75
2023/06/14 03:29:36;;;;;;;;;;;;;;;22.17;48.04;97477.22;5145166;27;19929;-74
2023/06/14 03:32:03;;;;;;;;;;;;;;;22.16;48.42;97485.75;5141507;27;19958;-74
2023/06/14 03:34:29;;;;;;;;;;;;;;;22.05;48.52;97488.16;5141708;27;19959;-74
2023/06/14 03:36:55;;;;;;;;;;;;;;;21.90;48.93;97494.34;5144615;27;19919;-74
2023/06/14 03:39:22;;;;;;;;;;;;;;;21.90;48.79;97486.19;5144905;27;19969;-74
2023/06/14 03:41:49;;;;;;;;;;;;;;;21.96;48.75;97490.25;5142820;27;19924;-74
2023/06/14 03:44:17;;;;;;;;;;;;;;;21.93;48.89;97482.78;5141216;27;20427;-74
2023/06/14 03:46:44;;;;;;;;;;;;;;;21.67;49.42;97485.91;5142743;27;20503;-74
2023/06/14 03:49:11;;;;;;;;;;;;;;;21.41;49.88;97494.50;5144889;27;19923;-75
2023/06/14 03:51:40;;;;;;;;;;;;;;;21.36;49.99;97497.44;5143982;27;19930;-75
2023/06/14 03:54:07;;;;;;;;;;;;;;;21.16;50.17;97500.28;5141139;27;20023;-74
2023/06/14 03:56:33;;;;;;;;;;;;;;;20.79;50.85;97502.22;5141544;27;20012;-75
2023/06/14 03:59:01;;;;;;;;;;;;;;;20.57;51.34;97513.47;5132527;27;19924;-74
2023/06/14 04:01:29;;;;;;;;;;;;;;;20.42;52.09;97512.22;5140904;27;19923;-75
2023/06/14 04:03:55;;;;;;;;;;;;;;;20.82;51.20;97507.75;5144102;27;20306;-74
2023/06/14 04:06:22;;;;;;;;;;;;;;;20.86;51.13;97515.97;5144752;27;19970;-74
2023/06/14 04:08:49;;;;;;;;;;;;;;;21.33;50.46;97516.31;5142523;27;19923;-75
2023/06/14 04:11:15;;;;;;;;;;;;;;;21.48;50.05;97526.50;5140997;27;19928;-75
2023/06/14 04:13:42;;;;;;;;;;;;;;;21.66;49.89;97513.44;5141960;27;19987;-75
2023/06/14 04:16:09;;;;;;;;;;;;;;;21.43;50.15;97519.38;5144252;27;19983;-74
2023/06/14 04:18:36;;;;;;;;;;;;;;;21.60;49.83;97522.97;5144042;27;19939;-75
2023/06/14 04:21:02;;;;;;;;;;;;;;;21.61;49.94;97519.91;5136522;27;20022;-74
2023/06/14 04:23:28;;;;;;;;;;;;;;;21.76;49.54;97521.88;5144440;27;19950;-74
2023/06/14 04:26:01;;;;;;;;;;;;;;;21.83;49.47;97524.03;5122996;28;19999;-75
2023/06/14 04:28:28;;;;;;;;;;;;;;;21.07;50.79;97524.84;5122502;28;19920;-75
2023/06/14 04:30:54;;;;;;;;;;;;;;;21.01;51.15;97523.47;5143074;27;19935;-75
2023/06/14 04:33:22;;;;;;;;;;;;;;;20.63;52.08;97536.56;5143967;27;19958;-75
2023/06/14 04:35:53;;;;;;;;;;;;;;;20.45;52.83;97525.13;5142011;27;19919;-74
2023/06/14 04:38:23;;;;;;;;;;;;;;;19.96;53.77;97537.66;5140500;27;19981;-74
2023/06/14 04:40:52;;;;;;;;;;;;;;;20.15;53.38;97529.84;5142487;27;19923;-75
2023/06/14 04:43:24;;;;;;;;;;;;;;;20.41;53.03;97535.84;5144061;27;19919;-74
2023/06/14 04:45:51;;;;;;;;;;;;;;;20.61;52.94;97542.31;5141582;27;19930;-75
2023/06/14 04:48:20;;;;;;;;;;;;;;;20.84;52.34;97537.25;5140374;27;19924;-75
2023/06/14 04:50:48;;;;;;;;;;;;;;;21.04;51.75;97533.66;5142041;27;19928;-75
2023/06/14 04:53:14;;;;;;;;;;;;;;;20.70;52.37;97543.03;5143808;27;19982;-74
2023/06/14 04:55:44;;;;;;;;;;;;;;;19.90;54.26;97544.41;5142951;27;19923;-74
2023/06/14 04:58:12;;;;;;;;;;;;;;;19.93;54.78;97543.75;5140286;27;19927;-74
2023/06/14 05:00:39;;;;;;;;;;;;;;;19.74;55.58;97544.25;5141022;27;19919;-74
2023/06/14 05:03:05;;;;;;;;;;;;;;;19.94;55.69;97545.34;5143920;27;19924;-75
2023/06/14 05:05:32;;;;;;;;;;;;;;;20.30;54.46;97547.44;5143789;27;19938;-74
2023/06/14 05:07:59;;;;;;;;;;;;;;;20.16;54.80;97544.19;5140635;27;19927;-74
2023/06/14 05:10:26;;;;;;;;;;;;;;;20.33;54.76;97550.25;5140881;27;20007;-74
2023/06/14 05:12:52;;;;;;;;;;;;;;;20.75;53.76;97536.56;5145019;27;19912;-73
2023/06/14 05:15:19;;;;;;;;;;;;;;;20.82;53.39;97542.22;5149943;27;19919;-74
2023/06/14 05:17:50;;;;;;;;;;;;;;;20.87;53.42;97548.22;5149082;27;19912;-73
2023/06/14 05:20:16;;;;;;;;;;;;;;;20.27;54.99;97559.72;5146934;28;19943;-75
2023/06/14 05:22:43;;;;;;;;;;;;;;;20.27;55.31;97546.19;5148396;28;20042;-74
2023/06/14 05:25:10;;;;;;;;;;;;;;;20.87;53.78;97544.72;5150677;28;19912;-75
2023/06/14 05:27:37;;;;;;;;;;;;;;;20.71;54.31;97554.66;5150287;28;19912;-74
2023/06/14 05:30:03;;;;;;;;;;;;;;;20.64;54.99;97559.84;5146856;28;19934;-75
2023/06/14 05:32:31;;;;;;;;;;;;;;;20.79;55.30;97559.19;5147219;28;19912;-75
2023/06/14 05:34:57;;;;;;;;;;;;;;;20.83;55.33;97560.88;5149283;28;19924;-75
2023/06/14 05:37:23;;;;;;;;;;;;;;;20.84;55.50;97551.63;5145938;28;20537;-74
2023/06/14 05:39:50;;;;;;;;;;;;;;;21.25;54.18;97556.06;5142127;28;19959;-74
2023/06/14 05:42:17;;;;;;;;;;;;;;;21.11;55.03;97550.19;5142645;27;19931;-74
2023/06/14 05:44:44;;;;;;;;;;;;;;;21.37;54.02;97556.06;5145445;27;19998;-75
2023/06/14 05:47:10;;;;;;;;;;;;;;;21.27;54.83;97559.22;5147579;27;19923;-75
2023/06/14 05:49:36;;;;;;;;;;;;;;;21.32;54.20;97567.13;5147207;27;19924;-74
2023/06/14 05:52:03;;;;;;;;;;;;;;;21.67;53.47;97567.44;5136869;27;19995;-74
2023/06/14 05:54:29;;;;;;;;;;;;;;;21.56;53.67;97565.53;5148140;27;20014;-74
2023/06/14 05:56:55;;;;;;;;;;;;;;;21.68;53.54;97573.66;5147756;27;19923;-74
2023/06/14 05:59:23;;;;;;;;;;;;;;;21.84;53.25;97571.81;5146651;27;19991;-74
2023/06/14 06:01:50;;;;;;;;;;;;;;;21.83;52.79;97571.03;5144525;27;19983;-75
2023/06/14 06:04:16;;;;;;;;;;;;;;;21.85;53.38;97574.19;5143181;27;19983;-74
2023/06/14 06:06:42;;;;;;;;;;;;;;;21.87;53.15;97568.41;5144184;27;19952;-74
2023/06/14 06:09:08;;;;;;;;;;;;;;;22.38;52.25;97566.75;5146563;27;19987;-74
2023/06/14 06:11:35;;;;;;;;;;;;;;;22.79;51.33;97562.81;5146647;27;19954;-75
2023/06/14 06:14:01;;;;;;;;;;;;;;;22.87;51.44;97565.38;5142871;27;19963;-75
2023/06/14 06:16:29;;;;;;;;;;;;;;;22.81;51.26;97571.44;5143342;27;19924;-74
2023/06/14 06:18:55;;;;;;;;;;;;;;;22.49;51.81;97563.22;5145871;27;19967;-74
2023/06/14 06:21:21;;;;;;;;;;;;;;;22.83;51.19;97569.16;5146356;27;19987;-75
2023/06/14 06:23:48;;;;;;;;;;;;;;;22.54;51.65;97573.03;5144461;27;19928;-74
2023/06/14 06:26:14;;;;;;;;;;;;;;;22.42;52.00;97579.34;5142632;27;19990;-76
2023/06/14 06:28:40;;;;;;;;;;;;;;;22.40;52.01;97583.56;5143572;27;20050;-74
2023/06/14 06:31:07;;;;;;;;;;;;;;;22.59;52.02;97592.63;5146561;27;19981;-74
2023/06/14 06:33:36;;;;;;;;;;;;;;;22.72;51.70;97584.41;5146240;27;19987;-75
2023/06/14 06:36:03;;;;;;;;;;;;;;;22.78;51.80;97591.19;5134414;27;19930;-75
2023/06/14 06:38:29;;;;;;;;;;;;;;;23.01;51.29;97594.91;5142466;27;20010;-75
2023/06/14 06:40:56;;;;;;;;;;;;;;;23.59;50.66;97591.25;5145614;27;19950;-75
2023/06/14 06:43:22;;;;;;;;;;;;;;;23.68;50.14;97588.34;5145554;27;19923;-75
2023/06/14 06:45:49;;;;;;;;;;;;;;;23.83;50.27;97595.69;5143833;27;19975;-74
2023/06/14 06:48:16;;;;;;;;;;;;;;;23.64;50.39;97598.38;5142216;27;19924;-75
2023/06/14 06:50:44;;;;;;;;;;;;;;;23.56;50.19;97591.97;5143277;27;19926;-75
2023/06/14 06:53:10;;;;;;;;;;;;;;;23.60;50.55;97597.50;5145152;27;19945;-75
2023/06/14 06:55:37;;;;;;;;;;;;;;;23.27;50.13;97597.88;5145546;27;19965;-75
2023/06/14 06:58:05;;;;;;;;;;;;;;;23.31;49.86;97597.94;5141940;27;19963;-75
2023/06/14 07:00:31;;;;;;;;;;;;;;;23.77;50.16;97599.06;5141963;27;19924;-74
2023/06/14 07:02:57;;;;;;;;;;;;;;;24.16;49.50;97601.50;5145122;27;19923;-74
2023/06/14 07:05:24;;;;;;;;;;;;;;;24.03;49.47;97605.47;5145430;27;20530;-74
2023/06/14 07:07:51;;;;;;;;;;;;;;;24.25;48.96;97605.94;5143287;27;19926;-75
2023/06/14 07:10:18;;;;;;;;;;;;;;;24.10;48.58;97608.38;5141522;27;20014;-74
2023/06/14 07:12:44;;;;;;;;;;;;;;;23.76;48.95;97605.66;5142724;27;20006;-74
2023/06/14 07:15:11;;;;;;;;;;;;;;;23.88;49.75;97605.53;5145372;27;19928;-75
2023/06/14 07:17:37;;;;;;;;;;;;;;;24.24;49.20;97609.81;5144777;27;19945;-75
2023/06/14 07:20:08;;;;;;;;;;;;;;;24.53;48.76;97618.22;5141541;27;19963;-74
2023/06/14 07:22:34;;;;;;;;;;;;;;;24.50;48.05;97618.94;5141668;27;19981;-73
2023/06/14 07:25:02;;;;;;;;;;;;;;;23.62;44.71;97617.03;5133173;27;19981;-74
2023/06/14 07:27:29;;;;;;;;;;;;;;;23.48;45.98;97617.50;5141289;27;19947;-75
2023/06/14 07:29:55;;;;;;;;;;;;;;;22.92;44.88;97618.78;5144151;27;20387;-75
2023/06/14 07:32:21;;;;;;;;;;;;;;;22.69;46.44;97628.66;5144807;27;19930;-74
2023/06/14 07:34:48;;;;;;;;;;;;;;;23.56;46.94;97624.69;5142881;27;19923;-74
2023/06/14 07:37:14;;;;;;;;;;;;;;;24.21;46.12;97627.69;5141173;27;20324;-75
2023/06/14 07:39:40;;;;;;;;;;;;;;;23.72;45.14;97626.59;5141976;27;19983;-75
2023/06/14 07:42:08;;;;;;;;;;;;;;;24.01;45.89;97635.06;5144540;27;19990;-75
2023/06/14 07:44:35;;;;;;;;;;;;;;;24.50;45.42;97634.53;5144706;27;19973;-75
2023/06/14 07:47:02;;;;;;;;;;;;;;;24.57;44.09;97635.44;5141291;27;19934;-75
2023/06/14 07:49:28;;;;;;;;;;;;;;;23.34;45.24;97632.66;5140942;27;19958;-74
2023/06/14 07:51:55;;;;;;;;;;;;;;;23.42;45.50;97640.72;5141179;27;19974;-75
2023/06/14 07:54:24;;;;;;;;;;;;;;;23.19;46.16;97633.47;5140808;27;19928;-75
2023/06/14 07:56:51;;;;;;;;;;;;;;;22.81;46.09;97637.56;5143344;27;19924;-75
2023/06/14 07:59:18;;;;;;;;;;;;;;;22.54;46.06;97639.16;5144514;27;19963;-74
2023/06/14 08:01:46;;;;;;;;;;;;;;;21.94;47.46;97637.41;5143044;27;19959;-74
2023/06/14 08:04:13;;;;;;;;;;;;;;;21.87;48.03;97648.06;5140066;27;19924;-75
2023/06/14 08:06:39;;;;;;;;;;;;;;;21.87;47.56;97636.38;5141438;27;19924;-74
2023/06/14 08:09:06;;;;;;;;;;;;;;;22.24;47.52;97646.06;5144372;27;19934;-73
2023/06/14 08:11:32;;;;;;;;;;;;;;;22.50;47.52;97640.16;5144682;27;19923;-74
2023/06/14 08:13:59;;;;;;;;;;;;;;;22.54;47.56;97641.06;5140924;27;19979;-75
2023/06/14 08:16:26;;;;;;;;;;;;;;;22.45;47.85;97643.94;5140458;27;19991;-74
2023/06/14 08:18:53;;;;;;;;;;;;;;;22.59;47.98;97647.06;5143225;27;19961;-74
2023/06/14 08:21:19;;;;;;;;;;;;;;;22.83;47.19;97643.47;5143954;27;19924;-75
2023/06/14 08:23:46;;;;;;;;;;;;;;;22.48;47.98;97640.53;5142531;27;19954;-75
2023/06/14 08:26:12;;;;;;;;;;;;;;;23.64;47.16;97642.78;5140272;27;19919;-75
2023/06/14 08:28:39;;;;;;;;;;;;;;;23.84;46.33;97637.38;5140635;27;19923;-75
2023/06/14 08:31:05;;;;;;;;;;;;;;;23.64;46.42;97642.78;5144006;27;19927;-75
2023/06/14 08:33:34;;;;;;;;;;;;;;;23.38;46.89;97641.72;5143872;27;19923;-74
2023/06/14 08:36:00;;;;;;;;;;;;;;;23.33;46.34;97645.53;5132194;27;19991;-75
2023/06/14 08:38:27;;;;;;;;;;;;;;;23.49;46.29;97645.53;5141153;27;19965;-74
2023/06/14 08:40:53;;;;;;;;;;;;;;;22.94;47.16;97646.44;5147601;27;20007;-75
2023/06/14 08:43:20;;;;;;;;;;;;;;;22.74;47.34;97653.72;5146187;27;20027;-74
2023/06/14 08:45:47;;;;;;;;;;;;;;;22.93;47.24;97644.88;5142924;27;19999;-74
2023/06/14 08:48:17;;;;;;;;;;;;;;;23.79;46.19;97638.47;5140759;27;19972;-74
2023/06/14 08:50:46;;;;;;;;;;;;;;;23.58;45.94;97644.19;5141731;27;19923;-74
2023/06/14 08:53:19;;;;;;;;;;;;;;;23.50;45.76;97649.84;5144208;27;19991;-74
2023/06/14 08:55:47;;;;;;;;;;;;;;;23.71;45.51;97652.25;5142567;27;20002;-75
2023/06/14 08:58:14;;;;;;;;;;;;;;;23.25;45.51;97656.56;5140964;27;20003;-75
2023/06/14 09:00:41;;;;;;;;;;;;;;;23.18;45.69;97650.97;5123181;27;19923;-75
2023/06/14 09:03:12;;;;;;;;;;;;;;;22.98;46.20;97659.03;5143694;27;19923;-75
2023/06/14 09:05:39;;;;;;;;;;;;;;;22.64;46.77;97654.19;5142952;27;19995;-75
2023/06/14 09:08:07;;;;;;;;;;;;;;;22.98;46.54;97660.97;5139649;27;19961;-75
2023/06/14 09:10:35;;;;;;;;;;;;;;;23.64;46.32;97659.13;5139655;27;20112;-76
2023/06/14 09:13:01;;;;;;;;;;;;;;;24.33;45.46;97657.56;5131285;27;19953;-75
2023/06/14 09:15:28;;;;;;;;;;;;;;;24.79;44.60;97666.69;5139501;27;19995;-75
2023/06/14 09:17:55;;;;;;;;;;;;;;;24.84;44.60;97671.09;5124176;27;19954;-76
2023/06/14 09:20:21;;;;;;;;;;;;;;;25.24;43.98;97674.19;5136594;27;19924;-76
2023/06/14 09:22:48;;;;;;;;;;;;;;;25.38;43.92;97663.47;5141437;28;19924;-75
2023/06/14 09:25:16;;;;;;;;;;;;;;;24.35;43.72;97671.66;5124647;28;19931;-75
2023/06/14 09:27:42;;;;;;;;;;;;;;;23.75;44.63;97673.03;5142059;28;19946;-74
2023/06/14 09:30:10;;;;;;;;;;;;;;;23.22;45.58;97660.81;5139406;28;19953;-75
2023/06/14 09:32:37;;;;;;;;;;;;;;;23.33;45.19;97671.97;5139772;28;19967;-75
2023/06/14 09:35:04;;;;;;;;;;;;;;;23.30;45.64;97664.50;5142970;28;20038;-74
2023/06/14 09:37:31;;;;;;;;;;;;;;;23.92;45.47;97672.63;5142981;28;20661;-75
2023/06/14 09:39:58;;;;;;;;;;;;;;;24.51;44.71;97661.44;5139628;28;19958;-76
2023/06/14 09:42:28;;;;;;;;;;;;;;;24.36;44.45;97672.44;5139483;28;19920;-75
2023/06/14 09:44:55;;;;;;;;;;;;;;;24.26;45.09;97667.56;5142714;28;19928;-76
2023/06/14 09:47:22;;;;;;;;;;;;;;;24.10;45.10;97673.03;5143298;28;20024;-76
2023/06/14 09:49:48;;;;;;;;;;;;;;;24.04;45.41;97669.81;5141124;28;19965;-76
2023/06/14 09:52:15;;;;;;;;;;;;;;;24.17;45.18;97670.47;5139565;28;19924;-76
2023/06/14 09:54:43;;;;;;;;;;;;;;;24.53;44.92;97656.44;5140392;28;19987;-76
2023/06/14 09:57:10;;;;;;;;;;;;;;;24.41;44.91;97659.31;5142805;28;19923;-76
2023/06/14 09:59:41;;;;;;;;;;;;;;;24.24;44.71;97662.47;5142810;28;19995;-78
2023/06/14 10:02:12;;;;;;;;;;;;;;;24.16;44.85;97668.91;5139215;28;19924;-76
2023/06/14 10:04:41;;;;;;;;;;;;;;;24.48;44.91;97670.38;5139945;28;19920;-77
2023/06/14 10:07:07;;;;;;;;;;;;;;;24.78;44.76;97672.53;5142874;28;19991;-77
2023/06/14 10:09:34;;;;;;;;;;;;;;;24.85;44.05;97676.19;5143108;28;19955;-75
2023/06/14 10:12:01;;;;;;;;;;;;;;;24.76;44.24;97658.44;5143079;28;19995;-76
2023/06/14 10:14:28;;;;;;;;;;;;;;;24.72;44.54;97669.28;5142601;28;19919;-77
2023/06/14 10:16:59;;;;;;;;;;;;;;;24.12;44.82;97668.84;5139882;28;19959;-76
2023/06/14 10:19:34;;;;;;;;;;;;;;;23.87;45.46;97663.94;5139382;28;19962;-77
2023/06/14 10:22:02;;;;;;;;;;;;;;;24.21;45.09;97670.56;5138974;28;19946;-76
2023/06/14 10:24:31;;;;;;;;;;;;;;;24.07;45.19;97660.13;5139221;28;19955;-77
2023/06/14 10:26:58;;;;;;;;;;;;;;;23.98;45.56;97670.44;5142438;27;19951;-76
2023/06/14 10:29:25;;;;;;;;;;;;;;;24.17;44.83;97665.03;5146406;27;19959;-76
2023/06/14 10:31:56;;;;;;;;;;;;;;;24.06;45.00;97670.25;5144006;27;19935;-76
2023/06/14 10:34:24;;;;;;;;;;;;;;;24.60;44.67;97662.03;5142967;27;19987;-76
2023/06/14 10:37:01;;;;;;;;;;;;;;;24.97;44.53;97661.59;5144989;27;19924;-77
2023/06/14 10:39:27;;;;;;;;;;;;;;;24.53;44.33;97656.44;5146301;27;19924;-76
2023/06/14 10:41:54;;;;;;;;;;;;;;;24.89;44.10;97670.78;5143537;27;19924;-76
2023/06/14 10:44:40;;;;;;;;;;;;;;;25.11;43.94;97664.56;5142558;27;19946;-76
2023/06/14 10:47:24;;;;;;;;;;;;;;;24.81;43.34;97656.22;5135072;27;19977;-76
2023/06/14 10:49:52;;;;;;;;;;;;;;;24.68;44.20;97652.84;5143061;27;19927;-76
2023/06/14 10:52:21;;;;;;;;;;;;;;;25.04;43.78;97656.25;5142562;27;19970;-76
2023/06/14 10:55:13;;;;;;;;;;;;;;;25.06;42.70;97665.69;5144165;27;19923;-76
2023/06/14 10:57:41;;;;;;;;;;;;;;;24.94;42.45;97648.66;5145164;27;19974;-75
2023/06/14 11:00:15;;;;;;;;;;;;;;;24.89;43.21;97651.69;5142482;27;19924;-77
2023/06/14 11:02:56;;;;;;;;;;;;;;;24.29;43.59;97648.53;5143348;27;19959;-76
2023/06/14 11:05:27;;;;;;;;;;;;;;;24.34;44.12;97644.72;5132435;27;19923;-76
2023/06/14 11:08:00;;;;;;;;;;;;;;;24.36;44.02;97639.69;5143421;27;19923;-76
2023/06/14 11:10:34;;;;;;;;;;;;;;;24.46;44.16;97647.31;5142513;27;19923;-76
2023/06/14 11:13:01;;;;;;;;;;;;;;;24.42;44.39;97647.22;5134079;27;19924;-76
2023/06/14 11:15:30;;;;;;;;;;;;;;;24.92;43.98;97635.34;5142461;27;19930;-75
2023/06/14 11:17:57;;;;;;;;;;;;;;;25.14;43.32;97631.06;5145398;27;19931;-77
2023/06/14 11:20:27;;;;;;;;;;;;;;;24.77;42.89;97641.69;5138853;27;19920;-76
2023/06/14 11:22:54;;;;;;;;;;;;;;;24.73;43.51;97638.88;5144744;27;19979;-76
2023/06/14 11:25:20;;;;;;;;;;;;;;;24.61;43.49;97641.78;5146445;27;19990;-76
2023/06/14 11:27:47;;;;;;;;;;;;;;;24.65;43.39;97639.91;5145530;27;19954;-77
2023/06/14 11:30:14;;;;;;;;;;;;;;;24.65;43.07;97630.91;5142722;27;19962;-76
2023/06/14 11:32:42;;;;;;;;;;;;;;;24.82;43.06;97640.63;5142685;27;19931;-77
2023/06/14 11:35:09;;;;;;;;;;;;;;;24.71;43.75;97641.19;5145786;27;19924;-76
2023/06/14 11:37:38;;;;;;;;;;;;;;;24.75;43.53;97640.47;5145527;27;19923;-76
2023/06/14 11:40:09;;;;;;;;;;;;;;;25.00;42.74;97641.75;5141906;27;19955;-76
2023/06/14 11:42:36;;;;;;;;;;;;;;;25.05;42.04;97638.69;5141850;27;19931;-76
2023/06/14 11:45:03;;;;;;;;;;;;;;;25.18;42.39;97632.69;5145401;27;19955;-76
2023/06/14 11:47:32;;;;;;;;;;;;;;;25.26;42.78;97630.88;5127064;27;19976;-76
2023/06/14 11:49:59;;;;;;;;;;;;;;;25.25;43.30;97626.56;5141606;27;19924;-76
2023/06/14 11:52:25;;;;;;;;;;;;;;;25.13;43.50;97618.53;5141432;27;19986;-76
2023/06/14 11:54:54;;;;;;;;;;;;;;;24.87;44.11;97621.22;5125490;27;19991;-76
2023/06/14 11:57:20;;;;;;;;;;;;;;;24.77;44.17;97621.75;5146040;27;19923;-76
2023/06/14 11:59:47;;;;;;;;;;;;;;;24.76;44.41;97628.41;5143972;27;19963;-76
2023/06/14 12:02:14;;;;;;;;;;;;;;;24.69;44.47;97632.56;5141888;27;19958;-76
2023/06/14 12:04:41;;;;;;;;;;;;;;;24.58;44.09;97626.09;5142354;27;19924;-76
2023/06/14 12:07:14;;;;;;;;;;;;;;;24.79;44.63;97630.41;5145412;27;19958;-76
2023/06/14 12:09:43;;;;;;;;;;;;;;;24.50;44.60;97629.06;5144319;27;19962;-77
2023/06/14 12:12:12;;;;;;;;;;;;;;;24.25;44.68;97623.13;5142023;27;19947;-76
2023/06/14 12:14:42;;;;;;;;;;;;;;;24.34;44.24;97631.06;5141846;27;19970;-76
2023/06/14 12:17:08;;;;;;;;;;;;;;;24.48;44.64;97632.16;5145402;27;20003;-77
2023/06/14 12:19:42;;;;;;;;;;;;;;;24.66;43.37;97627.81;5126300;27;19988;-76
2023/06/14 12:22:09;;;;;;;;;;;;;;;24.44;44.12;97639.50;5129657;27;19958;-76
2023/06/14 12:24:36;;;;;;;;;;;;;;;24.66;44.17;97625.06;5144209;27;19923;-77
2023/06/14 12:27:03;;;;;;;;;;;;;;;24.52;44.57;97637.69;5140967;27;19966;-77
2023/06/14 12:29:31;;;;;;;;;;;;;;;24.23;44.76;97636.34;5140937;27;19926;-76
2023/06/14 12:31:58;;;;;;;;;;;;;;;24.04;44.84;97639.81;5143905;27;19987;-76
2023/06/14 12:34:24;;;;;;;;;;;;;;;23.95;45.34;97638.41;5144281;27;19971;-77
2023/06/14 12:36:51;;;;;;;;;;;;;;;23.96;45.38;97635.31;5141886;27;20273;-76
2023/06/14 12:39:17;;;;;;;;;;;;;;;24.39;45.07;97634.31;5140827;27;19928;-76
2023/06/14 12:41:44;;;;;;;;;;;;;;;24.40;44.54;97630.44;5141976;27;19983;-76
2023/06/14 12:44:11;;;;;;;;;;;;;;;24.45;44.81;97629.38;5144439;27;19954;-77
2023/06/14 12:46:39;;;;;;;;;;;;;;;24.51;44.38;97631.41;5144084;27;19967;-76
2023/06/14 12:49:06;;;;;;;;;;;;;;;24.76;44.19;97637.34;5140638;27;19924;-76